Flight Track Log - Related Links

Times and Time Zones

All times are in EDT time to prevent confusion due to time zone crossing. See the SWA539 flight status page for this flight to view local times or setup timezone preferences in your user account.

Time Position Orientation Groundspeed Altitude Reporting Facility
EDT Latitude Longitude Course Direction KTS MPH feet Rate Location/Type
Wed 06:54:38 PM 39.3167 -94.7167 322° Northwest 166 191 1,900  Level Kansas City TRACON
Wed 06:55:56 PM 39.3667 -94.7667 322° Northwest 229 264 4,400 1,935 Climbing Kansas City TRACON
Wed 06:57:13 PM 39.3642 -94.8778 268° West 270 311 6,900 2,723 Climbing Kansas City Center
Wed 06:58:17 PM 39.3586 -94.9892 266° West 277 319 10,800 3,242 Climbing Kansas City Center
Wed 06:59:17 PM 39.3547 -95.0931 267° West 302 348 13,600 3,124 Climbing Kansas City Center
Wed 07:00:18 PM 39.3492 -95.2178 267° West 302 348 17,100 2,832 Climbing Kansas City Center
Wed 07:01:22 PM 39.3431 -95.3325 266° West 321 369 19,500 2,371 Climbing Kansas City Center
Wed 07:02:22 PM 39.3381 -95.4517 267° West 331 381 22,000 1,920 Climbing Kansas City Center
Wed 07:03:27 PM 39.3328 -95.5692 267° West 344 396 23,500 1,632 Climbing Kansas City Center
Wed 07:04:27 PM 39.3264 -95.7153 267° West 365 420 25,400 1,672 Climbing Kansas City Center
Wed 07:05:29 PM 39.3181 -95.8453 265° West 378 435 26,900 1,073 Climbing Kansas City Center
Wed 07:06:30 PM 39.3097 -96.0056 266° West 401 461 27,600 912 Climbing Kansas City Center
Wed 07:07:34 PM 39.3025 -96.1525 266° West 426 490 28,800 1,429 Climbing Kansas City Center
Wed 07:08:36 PM 39.3031 -96.3083 270° West 433 498 30,600 1,721 Climbing Kansas City Center
Wed 07:09:36 PM 39.3028 -96.4603 270° West 428 493 32,300 1,452 Climbing Kansas City Center
Wed 07:10:40 PM 39.3053 -96.6433 271° West 425 489 33,600 1,104 Climbing Kansas City Center
Wed 07:11:41 PM 39.3047 -96.7900 270° West 428 493 34,600 738 Climbing Kansas City Center
Wed 07:12:42 PM 39.3050 -96.9631 270° West 430 495 35,100 672 Climbing Kansas City Center
Wed 07:13:46 PM 39.3053 -97.1156 270° West 441 507 36,000 432 Climbing Kansas City Center
Wed 07:14:47 PM 39.3058 -97.2844 270° West 428 493 36,000  Level Kansas City Center
Wed 07:15:50 PM 39.3036 -97.4319 269° West 428 493 36,000  Level Kansas City Center
Wed 07:16:50 PM 39.3039 -97.5833 270° West 429 494 36,000  Level Kansas City Center
Wed 07:17:55 PM 39.3031 -97.7381 270° West 430 495 36,000  Level Kansas City Center
Wed 07:18:56 PM 39.3014 -97.8997 269° West 432 497 36,000  Level Kansas City Center
Wed 07:19:59 PM 39.3000 -98.0719 269° West 431 496 36,000  Level Kansas City Center
Wed 07:20:59 PM 39.2989 -98.2353 270° West 432 497 36,000  Level Kansas City Center
Wed 07:22:03 PM 39.2967 -98.3889 269° West 428 493 36,000  Level Kansas City Center
Wed 07:23:04 PM 39.2942 -98.5514 269° West 429 494 36,000  Level Kansas City Center
Wed 07:24:05 PM 39.2936 -98.7111 270° West 429 494 36,000  Level Kansas City Center
Wed 07:25:09 PM 39.2906 -98.8583 269° West 430 495 36,000  Level Kansas City Center
Wed 07:26:11 PM 39.2878 -99.0147 269° West 435 501 36,000  Level Kansas City Center
Wed 07:27:12 PM 39.2844 -99.1747 269° West 436 502 36,000  Level Kansas City Center
Wed 07:27:27 PM 39.2819 -99.2461 267° West 440 506 36,000  Level Denver Center
Wed 07:28:29 PM 39.2794 -99.3967 269° West 440 506 36,000  Level Denver Center
Wed 07:29:31 PM 39.2756 -99.5481 268° West 440 506 36,000  Level Denver Center
Wed 07:30:32 PM 39.2722 -99.7247 269° West 440 506 36,000  Level Denver Center
Wed 07:31:34 PM 39.2681 -99.8761 268° West 440 506 36,000  Level Denver Center
Wed 07:32:36 PM 39.2633 -100.0528 268° West 441 507 36,000  Level Denver Center
Wed 07:33:37 PM 39.2589 -100.2044 268° West 440 506 36,000  Level Denver Center
Wed 07:34:39 PM 39.2325 -100.3531 257° West 445 512 36,000  Level Denver Center
Wed 07:35:41 PM 39.1969 -100.5211 255° West 436 502 36,000  Level Denver Center
Wed 07:36:43 PM 39.1653 -100.6683 255° West 442 509 36,000  Level Denver Center
Wed 07:37:44 PM 39.1294 -100.8369 255° West 439 505 36,000  Level Denver Center
Wed 07:38:46 PM 39.0983 -100.9825 255° West 440 506 36,000  Level Denver Center
Wed 07:39:48 PM 39.0611 -101.1519 254° West 440 506 36,000  Level Denver Center
Wed 07:40:50 PM 39.0300 -101.2939 254° West 438 504 36,000  Level Denver Center
Wed 07:41:52 PM 38.9919 -101.4644 254° West 440 506 36,000  Level Denver Center
Wed 07:42:53 PM 38.9594 -101.6114 254° West 445 512 36,000  Level Denver Center
Wed 07:43:55 PM 38.9222 -101.7814 254° West 444 511 36,000  Level Denver Center
Wed 07:44:57 PM 38.8886 -101.9283 254° West 447 514 36,000  Level Denver Center
Wed 07:45:59 PM 38.8550 -102.0747 254° West 448 516 36,000  Level Denver Center
Wed 07:47:01 PM 38.8133 -102.2458 253° West 450 518 36,000  Level Denver Center
Wed 07:48:03 PM 38.7675 -102.3872 247° West 449 517 36,000  Level Denver Center
Wed 07:49:04 PM 38.7136 -102.5528 247° West 453 521 36,000  Level Denver Center
Wed 07:50:06 PM 38.6681 -102.6936 248° West 448 516 36,000  Level Denver Center
Wed 07:51:08 PM 38.6197 -102.8450 248° West 448 516 36,000  Level Denver Center
Wed 07:52:10 PM 38.5717 -102.9942 248° West 449 517 36,000  Level Denver Center
Wed 07:53:12 PM 38.5147 -103.1608 246° West 447 514 36,000  Level Denver Center
Wed 07:54:14 PM 38.4700 -103.3006 248° West 444 511 36,000  Level Denver Center
Wed 07:55:16 PM 38.4175 -103.4608 247° West 446 513 36,000  Level Denver Center
Wed 07:56:17 PM 38.3675 -103.6083 247° West 447 514 36,000  Level Denver Center
Wed 07:57:19 PM 38.3203 -103.7492 247° West 453 521 36,000  Level Denver Center
Wed 07:58:21 PM 38.2656 -103.9119 247° West 452 520 36,000  Level Denver Center
Wed 07:59:23 PM 38.2167 -104.0542 246° West 458 527 36,000  Level Denver Center
Wed 08:00:24 PM 38.1769 -104.1722 247° West 457 526 36,000  Level Denver Center
Wed 08:01:39 PM 38.1042 -104.3875 247° West 463 533 36,000  Level Denver Center
Wed 08:02:41 PM 38.0467 -104.5539 246° West 465 535 36,000  Level Denver Center
Wed 08:03:43 PM 37.9958 -104.6989 246° West 471 542 36,000  Level Denver Center
Wed 08:04:45 PM 37.9378 -104.8675 246° West 470 541 36,000  Level Denver Center
Wed 08:05:46 PM 37.8869 -105.0133 246° West 473 544 36,000  Level Denver Center
Wed 08:06:48 PM 37.8267 -105.1839 246° West 477 549 36,000  Level Denver Center
Wed 08:07:50 PM 37.7756 -105.3286 246° West 471 542 36,000  Level Denver Center
Wed 08:08:52 PM 37.7153 -105.4972 246° West 472 543 36,000  Level Denver Center
Wed 08:09:54 PM 37.6625 -105.6431 245° Southwest 476 548 36,000  Level Denver Center
Wed 08:10:56 PM 37.6014 -105.8125 246° West 477 549 36,000  Level Denver Center
Wed 08:11:58 PM 37.5508 -105.9542 246° West 467 537 36,000  Level Denver Center
Wed 08:13:00 PM 37.4914 -106.1167 245° Southwest 472 543 36,000  Level Denver Center
Wed 08:14:02 PM 37.4386 -106.2603 245° Southwest 473 544 36,000  Level Denver Center
Wed 08:15:04 PM 37.3764 -106.4281 245° Southwest 474 545 36,000  Level Denver Center
Wed 08:16:05 PM 37.3322 -106.5461 245° Southwest 472 543 36,000  Level Denver Center
Wed 08:17:07 PM 37.2625 -106.7375 245° Southwest 473 544 36,000  Level Denver Center
Wed 08:18:09 PM 37.2094 -106.8817 245° Southwest 475 547 36,000  Level Denver Center
Wed 08:19:11 PM 37.1558 -107.0264 245° Southwest 477 549 36,000  Level Denver Center
Wed 08:20:13 PM 37.0933 -107.1925 245° Southwest 474 545 36,000  Level Denver Center
Wed 08:21:14 PM 37.0400 -107.3353 245° Southwest 473 544 36,000  Level Denver Center
Wed 08:22:16 PM 37.0039 -107.5078 255° West 457 526 36,000  Level Denver Center
Wed 08:23:18 PM 36.9742 -107.6586 256° West 464 534 36,000  Level Denver Center
Wed 08:24:20 PM 36.9386 -107.8336 256° West 467 537 36,000  Level Denver Center
Wed 08:25:21 PM 36.9083 -107.9842 256° West 467 537 36,000  Level Denver Center
Wed 08:26:23 PM 36.8722 -108.1603 256° West 470 541 36,000  Level Denver Center
Wed 08:27:25 PM 36.8411 -108.3100 255° West 467 537 36,000  Level Denver Center
Wed 08:28:27 PM 36.8103 -108.4600 256° West 466 536 36,000  Level Denver Center
Wed 08:29:28 PM 36.7739 -108.6319 255° West 463 533 36,000  Level Denver Center
Wed 08:30:30 PM 36.7417 -108.7819 255° West 466 536 36,000  Level Denver Center
Wed 08:32:33 PM 36.6731 -109.1067 255° West 469 540 36,000  Level Denver Center
Wed 08:33:35 PM 36.6358 -109.2803 255° West 467 537 36,000  Level Denver Center
Wed 08:34:37 PM 36.6036 -109.4264 255° West 461 531 36,000  Level Denver Center
Wed 08:35:39 PM 36.5664 -109.5981 255° West 462 532 36,000  Level Denver Center
Wed 08:36:40 PM 36.5392 -109.7194 254° West 460 529 36,000  Level Denver Center
Wed 08:37:42 PM 36.4956 -109.9156 255° West 462 532 36,000  Level Denver Center
Wed 08:38:44 PM 36.4644 -110.0614 255° West 459 528 36,000  Level Denver Center
Wed 08:39:45 PM 36.4294 -110.2200 255° West 456 525 36,000  Level Denver Center
Wed 08:40:47 PM 36.3956 -110.3706 254° West 455 524 36,000  Level Denver Center
Wed 08:41:49 PM 36.3608 -110.5206 254° West 453 521 36,000  Level Denver Center
Wed 08:42:51 PM 36.3269 -110.6697 254° West 450 518 36,000  Level Denver Center
Wed 08:43:52 PM 36.2908 -110.8186 253° West 451 519 36,000  Level Denver Center
Wed 08:44:54 PM 36.2508 -110.9961 254° West 447 514 36,000  Level Denver Center
Wed 08:45:56 PM 36.2164 -111.1428 254° West 444 511 36,000  Level Denver Center
Wed 08:46:57 PM 36.1794 -111.2903 253° West 446 513 36,000  Level Denver Center
Wed 08:47:59 PM 36.1297 -111.4369 247° West 456 525 36,000  Level Denver Center
Wed 08:49:00 PM 36.0828 -111.5831 248° West 458 527 36,000  Level Denver Center
Wed 08:50:02 PM 36.0353 -111.7286 248° West 458 527 36,000  Level Denver Center
Wed 08:51:04 PM 35.9867 -111.8733 247° West 456 525 36,000  Level Denver Center
Wed 08:52:05 PM 35.9392 -112.0178 248° West 455 524 36,000  Level Denver Center
Wed 08:53:07 PM 35.8822 -112.1892 248° West 451 519 36,000  Level Denver Center
Wed 08:54:08 PM 35.8347 -112.3322 248° West 452 520 36,000  Level Denver Center
Wed 08:55:24 PM 35.7814 -112.4892 247° West 446 513 36,000  Level Los Angeles Center
Wed 08:56:26 PM 35.7350 -112.6292 248° West 447 514 36,000  Level Los Angeles Center
Wed 08:57:28 PM 35.6819 -112.7839 247° West 445 512 36,000  Level Los Angeles Center
Wed 08:58:30 PM 35.6267 -112.9461 247° West 448 516 36,000  Level Los Angeles Center
Wed 08:59:32 PM 35.5789 -113.0869 247° West 447 514 36,000  Level Los Angeles Center
Wed 09:00:34 PM 35.5308 -113.2261 247° West 443 510 36,000  Level Los Angeles Center
Wed 09:01:36 PM 35.4803 -113.3742 247° West 442 509 36,000  Level Los Angeles Center
Wed 09:02:38 PM 35.4319 -113.5119 247° West 443 510 36,000  Level Los Angeles Center
Wed 09:03:40 PM 35.3836 -113.6508 247° West 445 512 36,000  Level Los Angeles Center
Wed 09:04:42 PM 35.3353 -113.7875 247° West 442 509 36,000  Level Los Angeles Center
Wed 09:05:43 PM 35.2775 -113.9531 247° West 448 516 36,000  Level Los Angeles Center
Wed 09:06:45 PM 35.2289 -114.0903 247° West 444 511 36,000  Level Los Angeles Center
Wed 09:07:47 PM 35.1794 -114.2308 247° West 446 513 36,000  Level Los Angeles Center
Wed 09:08:49 PM 35.1306 -114.3675 246° West 440 506 36,000  Level Los Angeles Center
Wed 09:09:51 PM 35.0819 -114.5047 247° West 439 505 36,000  Level Los Angeles Center
Wed 09:10:52 PM 35.0317 -114.6433 246° West 443 510 36,000  Level Los Angeles Center
Wed 09:11:54 PM 34.9822 -114.7794 246° West 441 507 36,000  Level Los Angeles Center
Wed 09:12:56 PM 34.9228 -114.9428 246° West 440 506 36,000  Level Los Angeles Center
Wed 09:13:58 PM 34.8750 -115.0739 246° West 429 494 36,000  Level Los Angeles Center
Wed 09:15:00 PM 34.8264 -115.2097 246° West 432 497 36,000  Level Los Angeles Center
Wed 09:16:01 PM 34.7769 -115.3439 246° West 434 499 36,000  Level Los Angeles Center
Wed 09:17:03 PM 34.7275 -115.4769 246° West 432 497 36,000 -145 Level Los Angeles Center
Wed 09:18:05 PM 34.6817 -115.5997 246° West 431 496 35,700 -726 Descending Los Angeles Center
Wed 09:19:07 PM 34.6233 -115.7583 246° West 429 494 34,500 -1,073 Descending Los Angeles Center
Wed 09:20:08 PM 34.5731 -115.8914 245° Southwest 433 498 33,500 -927 Descending Los Angeles Center
Wed 09:21:10 PM 34.5233 -116.0244 246° West 434 499 32,600 -919 Descending Los Angeles Center
Wed 09:22:12 PM 34.4719 -116.1589 245° Southwest 438 504 31,600 -927 Descending Los Angeles Center
Wed 09:23:13 PM 34.4206 -116.2919 245° Southwest 437 503 30,700 -927 Descending Los Angeles Center
Wed 09:24:15 PM 34.3492 -116.4183 236° Southwest 457 526 29,700 -1,597 Descending Los Angeles Center
Wed 09:25:17 PM 34.2772 -116.5456 236° Southwest 457 526 27,400 -2,098 Descending Los Angeles Center
Wed 09:26:18 PM 34.2203 -116.6733 242° Southwest 433 498 25,400 -2,195 Descending Los Angeles Center
Wed 09:27:20 PM 34.1775 -116.8381 253° West 426 490 22,900 -2,323 Descending Los Angeles Center
Wed 09:28:22 PM 34.1439 -116.9694 253° West 412 474 20,600 -1,846 Descending Los Angeles Center
Wed 09:29:30 PM 34.1000 -117.1167 250° West 377 434 18,900 -1,406 Descending Southern California TRACON
Wed 09:30:30 PM 34.0500 -117.2333 243° Southwest 371 427 17,600 -1,700 Descending Southern California TRACON
Wed 09:31:30 PM 34.0333 -117.3500 260° West 353 406 15,500 -2,100 Descending Southern California TRACON
Wed 09:32:30 PM 34.0333 -117.4667 270° West 345 397 13,400 -1,900 Descending Southern California TRACON
Wed 09:33:30 PM 34.0333 -117.5667 270° West 327 376 11,700 -1,550 Descending Southern California TRACON
Wed 09:34:30 PM 34.0167 -117.6833 260° West 311 358 10,300 -1,000 Descending Southern California TRACON
Wed 09:35:30 PM 34.0167 -117.7833 270° West 291 335 9,700 -750 Descending Southern California TRACON
Wed 09:36:30 PM 34.0000 -117.8833 259° West 264 304 8,800 -1,050 Descending Southern California TRACON
Wed 09:37:30 PM 34.0000 -117.9667 270° West 259 298 7,600 -1,100 Descending Southern California TRACON
Wed 09:38:30 PM 33.9833 -118.0500 256° West 250 288 6,600 -744 Descending Southern California TRACON
Wed 09:39:31 PM 33.9833 -118.1167 270° West 213 245 6,100 -992 Descending Southern California TRACON
Wed 09:40:31 PM 33.9667 -118.1833 253° West 185 213 4,600 -1,421 Descending Southern California TRACON
Wed 09:41:25 PM 33.9667 -118.2333 270° West 169 194 3,400 -1,167 Descending Southern California TRACON
Wed 09:41:43 PM 33.9681 -118.2503 276° West 176 203 3,200 -900 Descending Los Angeles Center
Wed 09:42:45 PM 33.9628 -118.3014 263° West 166 191 2,200 -976 Descending Los Angeles Center
Wed 09:43:46 PM 33.9583 -118.3417 262° West 141 162 1,200 -829 Descending Los Angeles Center
Wed 09:44:48 PM 33.9553 -118.3833 265° West 129 148 500 -488 Descending Los Angeles Center
Wed 09:45:49 PM 33.9486 -118.4342 261° West 129 148 200 -295 Descending Los Angeles Center
Wed 09:47:00 PM 33.9425 -118.4081 259° West  Level Estimated
Wed 09:54:00 PM 33.9425 -118.4081 259° West  Level Estimated

Login

Don't have an account? Register now (free) for customized features, flight alerts, and more!